createdAt,value
2019-06-20T00:01:57.174Z,100352.34
2019-06-20T00:04:26.090Z,100346.03
2019-06-20T00:06:54.998Z,100349.75
2019-06-20T00:09:23.909Z,100343.81
2019-06-20T00:11:53.119Z,100346.63
2019-06-20T00:14:22.005Z,100346.95
2019-06-20T00:16:50.929Z,100343.02
2019-06-20T00:19:19.809Z,100339.67
2019-06-20T00:21:48.724Z,100346.53
2019-06-20T00:24:17.640Z,100350.84
2019-06-20T00:26:46.559Z,100345.37
2019-06-20T00:29:15.461Z,100344.13
2019-06-20T00:31:44.356Z,100345.73
2019-06-20T00:34:13.265Z,100339.52
2019-06-20T00:36:42.200Z,100340.99
2019-06-20T00:39:11.088Z,100336.25
2019-06-20T00:41:39.995Z,100338.86
2019-06-20T00:44:08.994Z,100342.80
2019-06-20T00:46:37.886Z,100348.34
2019-06-20T00:49:06.821Z,100346.63
2019-06-20T00:51:35.712Z,100352.64
2019-06-20T00:54:04.616Z,100350.94
2019-06-20T00:56:33.555Z,100355.56
2019-06-20T00:59:02.469Z,100358.95
2019-06-20T01:01:31.387Z,100373.34
2019-06-20T01:04:00.322Z,100364.47
2019-06-20T01:06:29.245Z,100369.88
2019-06-20T01:08:58.180Z,100366.45
2019-06-20T01:11:27.083Z,100363.42
2019-06-20T01:13:55.978Z,100369.01
2019-06-20T01:16:24.902Z,100370.60
2019-06-20T01:18:53.824Z,100360.80
2019-06-20T01:21:22.707Z,100349.08
2019-06-20T01:23:51.631Z,100349.60
2019-06-20T01:26:20.533Z,100349.28
2019-06-20T01:28:49.459Z,100356.14
2019-06-20T01:31:18.378Z,100351.55
2019-06-20T01:33:47.280Z,100355.66
2019-06-20T01:36:16.201Z,100362.39
2019-06-20T01:38:45.126Z,100367.48
2019-06-20T01:41:14.012Z,100368.20
2019-06-20T01:43:50.602Z,100372.84
2019-06-20T01:46:11.828Z,100365.95
2019-06-20T01:48:40.761Z,100376.30
2019-06-20T01:51:09.648Z,100380.13
2019-06-20T01:53:38.585Z,100381.39
2019-06-20T01:56:07.460Z,100382.31
2019-06-20T01:58:36.345Z,100376.33
2019-06-20T02:01:05.276Z,100381.10
2019-06-20T02:03:34.169Z,100388.28
2019-06-20T02:06:03.100Z,100384.20
2019-06-20T02:08:32.015Z,100384.00
2019-06-20T02:11:00.931Z,100382.30
2019-06-20T02:13:29.826Z,100382.67
2019-06-20T02:15:58.726Z,100386.65
2019-06-20T02:18:27.614Z,100395.98
2019-06-20T02:20:56.563Z,100400.44
2019-06-20T02:23:25.468Z,100400.23
2019-06-20T02:25:54.388Z,100403.31
2019-06-20T02:28:23.331Z,100396.35
2019-06-20T02:30:52.247Z,100396.45
2019-06-20T02:33:21.164Z,100398.05
2019-06-20T02:35:50.046Z,100404.98
2019-06-20T02:38:18.980Z,100405.63
2019-06-20T02:40:47.887Z,100410.92
2019-06-20T02:43:16.831Z,100406.02
2019-06-20T02:45:45.709Z,100407.43
2019-06-20T02:48:14.610Z,100405.92
2019-06-20T02:50:43.501Z,100409.45
2019-06-20T02:53:12.414Z,100415.00
2019-06-20T02:55:41.289Z,100423.83
2019-06-20T02:58:10.181Z,100423.07
2019-06-20T03:00:55.125Z,100437.70
2019-06-20T03:03:24.058Z,100450.03
2019-06-20T03:05:52.965Z,100449.16
2019-06-20T03:08:21.906Z,100448.64
2019-06-20T03:10:50.814Z,100449.82
2019-06-20T03:13:19.726Z,100453.55
2019-06-20T03:15:50.046Z,100450.06
2019-06-20T03:18:17.524Z,100458.42
2019-06-20T03:20:46.426Z,100466.66
2019-06-20T03:23:15.354Z,100468.17
2019-06-20T03:25:44.244Z,100470.01
2019-06-20T03:28:13.134Z,100478.61
2019-06-20T03:30:42.053Z,100477.30
2019-06-20T03:33:10.935Z,100481.93
2019-06-20T03:35:39.854Z,100479.84
2019-06-20T03:38:08.849Z,100480.78
2019-06-20T03:40:37.762Z,100475.54
2019-06-20T03:43:06.741Z,100476.77
2019-06-20T03:45:35.783Z,100468.55
2019-06-20T03:48:04.717Z,100468.05
2019-06-20T03:50:33.601Z,100471.56
2019-06-20T03:53:02.538Z,100473.32
2019-06-20T03:55:32.356Z,100470.25
2019-06-20T03:58:01.570Z,100478.37
2019-06-20T04:00:34.702Z,100479.84
2019-06-20T04:03:04.836Z,100475.92
2019-06-20T04:05:33.858Z,100480.78
2019-06-20T04:08:02.800Z,100482.67
2019-06-20T04:10:31.669Z,100480.50
2019-06-20T04:13:00.575Z,100488.20
2019-06-20T04:15:29.495Z,100487.63
2019-06-20T04:17:58.421Z,100485.08
2019-06-20T04:20:27.311Z,100483.30
2019-06-20T04:22:56.233Z,100486.89
2019-06-20T04:25:25.143Z,100488.40
2019-06-20T04:27:54.053Z,100487.87
2019-06-20T04:30:22.970Z,100484.14
2019-06-20T04:32:51.871Z,100488.40
2019-06-20T04:35:20.783Z,100485.00
2019-06-20T04:37:49.819Z,100496.48
2019-06-20T04:40:18.713Z,100499.55
2019-06-20T04:42:47.629Z,100497.09
2019-06-20T04:45:35.916Z,100499.74
2019-06-20T04:48:04.607Z,100495.20
2019-06-20T04:50:33.490Z,100494.35
2019-06-20T04:53:02.418Z,100497.67
2019-06-20T04:55:31.307Z,100503.62
2019-06-20T04:58:00.233Z,100498.47
2019-06-20T05:00:29.136Z,100503.23
2019-06-20T05:02:58.042Z,100503.67
2019-06-20T05:05:26.960Z,100507.59
2019-06-20T05:07:55.850Z,100511.37
2019-06-20T05:10:24.760Z,100514.31
2019-06-20T05:12:55.962Z,100521.69
2019-06-20T05:15:22.632Z,100518.89
2019-06-20T05:17:51.583Z,100518.96
2019-06-20T05:20:20.471Z,100524.25
2019-06-20T05:22:49.390Z,100524.64
2019-06-20T05:25:18.283Z,100530.52
2019-06-20T05:27:47.199Z,100529.39
2019-06-20T05:30:16.154Z,100532.66
2019-06-20T05:32:45.074Z,100534.22
2019-06-20T05:35:14.008Z,100533.83
2019-06-20T05:37:42.916Z,100538.14
2019-06-20T05:40:11.818Z,100541.63
2019-06-20T05:42:40.739Z,100544.75
2019-06-20T05:45:09.794Z,100542.34
2019-06-20T05:47:38.710Z,100545.47
2019-06-20T05:50:08.030Z,100547.50
2019-06-20T05:52:36.968Z,100550.67
2019-06-20T05:55:05.970Z,100552.84
2019-06-20T05:57:34.853Z,100552.52
2019-06-20T06:00:03.943Z,100544.71
2019-06-20T06:02:32.855Z,100543.58
2019-06-20T06:05:01.796Z,100543.81
2019-06-20T06:07:30.684Z,100545.13
2019-06-20T06:10:03.740Z,100545.84
2019-06-20T06:12:28.486Z,100542.72
2019-06-20T06:15:00.771Z,100534.83
2019-06-20T06:17:26.365Z,100530.95
2019-06-20T06:19:55.304Z,100530.62
2019-06-20T06:22:24.220Z,100537.76
2019-06-20T06:24:53.153Z,100531.58
2019-06-20T06:27:22.182Z,100521.92
2019-06-20T06:29:51.102Z,100524.81
2019-06-20T06:32:20.276Z,100525.52
2019-06-20T06:34:48.951Z,100530.27
2019-06-20T06:37:18.006Z,100530.33
2019-06-20T06:39:46.924Z,100542.77
2019-06-20T06:42:15.819Z,100536.59
2019-06-20T06:44:44.737Z,100533.13
2019-06-20T06:47:13.605Z,100537.84
2019-06-20T06:49:42.861Z,100540.56
2019-06-20T06:52:14.722Z,100535.59
2019-06-20T06:54:43.749Z,100537.56
2019-06-20T06:57:15.471Z,100547.30
2019-06-20T06:59:41.865Z,100552.53
2019-06-20T07:02:10.783Z,100555.90
2019-06-20T07:04:39.675Z,100558.52
2019-06-20T07:07:08.610Z,100560.66
2019-06-20T07:09:37.532Z,100556.43
2019-06-20T07:12:06.465Z,100552.10
2019-06-20T07:14:35.377Z,100552.56
2019-06-20T07:17:04.308Z,100554.84
2019-06-20T07:19:33.194Z,100558.86
2019-06-20T07:22:02.116Z,100561.95
2019-06-20T07:24:31.012Z,100567.66
2019-06-20T07:26:59.954Z,100571.55
2019-06-20T07:29:28.896Z,100576.00
2019-06-20T07:31:57.807Z,100574.54
2019-06-20T07:34:26.719Z,100583.97
2019-06-20T07:36:55.604Z,100585.42
2019-06-20T07:39:24.531Z,100579.37
2019-06-20T07:41:53.494Z,100585.08
2019-06-20T07:44:22.451Z,100584.32
2019-06-20T07:46:51.472Z,100586.72
2019-06-20T07:49:20.541Z,100590.44
2019-06-20T07:51:49.464Z,100585.14
2019-06-20T07:54:18.402Z,100582.35
2019-06-20T07:56:47.358Z,100591.17
2019-06-20T07:59:16.294Z,100585.33
2019-06-20T08:01:45.205Z,100589.99
2019-06-20T08:04:14.091Z,100585.03
2019-06-20T08:06:43.087Z,100588.45
2019-06-20T08:09:11.929Z,100591.33
2019-06-20T08:11:40.828Z,100595.73
2019-06-20T08:14:09.815Z,100600.06
2019-06-20T08:16:38.727Z,100607.34
2019-06-20T08:19:07.698Z,100599.86
2019-06-20T08:21:36.584Z,100587.83
2019-06-20T08:24:05.628Z,100585.80
2019-06-20T08:26:34.529Z,100597.86
2019-06-20T08:29:16.597Z,100600.11
2019-06-20T08:31:32.370Z,100618.98
2019-06-20T08:34:02.289Z,100619.27
2019-06-20T08:36:30.176Z,100616.81
2019-06-20T08:39:00.219Z,100612.25
2019-06-20T08:41:27.984Z,100614.61
2019-06-20T08:43:58.336Z,100613.72
2019-06-20T08:46:25.896Z,100627.63
2019-06-20T08:48:54.915Z,100620.50
2019-06-20T08:51:23.705Z,100619.24
2019-06-20T08:53:52.616Z,100621.25
2019-06-20T08:56:21.588Z,100617.44
2019-06-20T08:58:50.489Z,100628.00
2019-06-20T09:01:19.399Z,100625.73
2019-06-20T09:03:48.324Z,100623.34
2019-06-20T09:06:17.213Z,100617.80
2019-06-20T09:08:46.109Z,100626.96
2019-06-20T09:11:15.205Z,100632.59
2019-06-20T09:13:43.906Z,100631.30
2019-06-20T09:16:24.249Z,100637.48
2019-06-20T09:18:41.732Z,100639.58
2019-06-20T09:21:10.771Z,100639.25
2019-06-20T09:23:39.656Z,100647.13
2019-06-20T09:26:08.808Z,100646.05
2019-06-20T09:28:37.718Z,100648.84
2019-06-20T09:31:06.700Z,100655.34
2019-06-20T09:33:35.614Z,100655.64
2019-06-20T09:36:04.569Z,100657.27
2019-06-20T09:38:33.595Z,100654.05
2019-06-20T09:41:03.457Z,100653.99
2019-06-20T09:43:31.409Z,100651.73
2019-06-20T09:46:00.298Z,100665.38
2019-06-20T09:48:29.382Z,100662.06
2019-06-20T09:50:58.618Z,100672.38
2019-06-20T09:53:27.176Z,100660.59
2019-06-20T09:55:56.083Z,100674.02
2019-06-20T09:58:24.996Z,100667.55
2019-06-20T10:00:55.038Z,100672.13
2019-06-20T10:03:22.845Z,100678.63
2019-06-20T10:05:52.445Z,100680.80
2019-06-20T10:08:20.636Z,100676.91
2019-06-20T10:10:50.727Z,100676.72
2019-06-20T10:13:18.485Z,100686.16
2019-06-20T10:15:47.921Z,100682.36
2019-06-20T10:18:16.256Z,100696.19
2019-06-20T10:20:46.105Z,100699.59
2019-06-20T10:23:14.085Z,100704.13
2019-06-20T10:25:42.987Z,100705.05
2019-06-20T10:28:11.885Z,100708.05
2019-06-20T10:30:40.801Z,100715.39
2019-06-20T10:33:09.836Z,100719.48
2019-06-20T10:35:38.762Z,100720.66
2019-06-20T10:38:07.756Z,100727.59
2019-06-20T10:40:36.666Z,100704.52
2019-06-20T10:43:05.857Z,100706.83
2019-06-20T10:45:34.792Z,100713.34
2019-06-20T10:48:03.679Z,100714.94
2019-06-20T10:50:32.578Z,100712.02
2019-06-20T10:53:01.525Z,100709.77
2019-06-20T10:55:30.481Z,100700.19
2019-06-20T10:57:59.299Z,100730.59
2019-06-20T11:00:31.859Z,100712.45
2019-06-20T11:02:58.037Z,100716.59
2019-06-20T11:05:26.954Z,100728.06
2019-06-20T11:07:55.886Z,100721.72
2019-06-20T11:10:24.833Z,100725.98
2019-06-20T11:12:56.218Z,100726.42
2019-06-20T11:15:22.684Z,100724.42
2019-06-20T11:17:51.589Z,100726.50
2019-06-20T11:20:20.587Z,100716.68
2019-06-20T11:22:49.505Z,100715.59
2019-06-20T11:25:19.538Z,100714.50
2019-06-20T11:27:47.523Z,100722.72
2019-06-20T11:30:16.682Z,100712.41
2019-06-20T11:32:45.832Z,100718.19
2019-06-20T11:35:14.573Z,100708.20
2019-06-20T11:37:44.723Z,100717.47
2019-06-20T11:40:12.367Z,100726.16
2019-06-20T11:45:48.259Z,100719.59
2019-06-20T11:48:21.358Z,100707.55
2019-06-20T11:50:50.260Z,100720.06
2019-06-20T11:53:19.164Z,100716.58
2019-06-20T11:55:48.049Z,100722.79
2019-06-20T11:58:16.980Z,100717.34
2019-06-20T12:01:02.206Z,100722.98
2019-06-20T12:03:14.851Z,100721.41
2019-06-20T12:05:44.842Z,100720.59
2019-06-20T12:08:12.687Z,100716.62
2019-06-20T12:10:43.087Z,100718.22
2019-06-20T12:13:11.303Z,100717.53
2019-06-20T12:15:41.648Z,100714.53
2019-06-20T12:18:09.248Z,100718.41
2019-06-20T12:20:39.621Z,100715.03
2019-06-20T12:23:07.199Z,100712.09
2019-06-20T12:25:36.152Z,100712.94
2019-06-20T12:28:05.335Z,100709.31
2019-06-20T12:30:34.238Z,100706.55
2019-06-20T12:33:03.383Z,100708.06
2019-06-20T12:35:32.303Z,100695.91
2019-06-20T12:38:01.208Z,100699.23
2019-06-20T12:40:30.123Z,100696.89
2019-06-20T12:42:59.016Z,100699.99
2019-06-20T12:45:27.935Z,100703.71
2019-06-20T12:47:56.863Z,100700.57
2019-06-20T12:50:25.769Z,100702.31
2019-06-20T12:52:54.711Z,100702.84
2019-06-20T12:55:23.601Z,100698.99
2019-06-20T12:57:52.495Z,100697.98
2019-06-20T13:00:21.393Z,100689.35
2019-06-20T13:02:50.295Z,100699.70
2019-06-20T13:05:19.186Z,100698.72
2019-06-20T13:07:48.180Z,100699.92
2019-06-20T13:10:17.034Z,100702.20
2019-06-20T13:12:46.398Z,100694.92
2019-06-20T13:15:14.818Z,100695.51
2019-06-20T13:17:44.987Z,100704.91
2019-06-20T13:20:12.817Z,100705.91
2019-06-20T13:22:42.856Z,100707.05
2019-06-20T13:25:10.610Z,100704.29
2019-06-20T13:27:40.978Z,100702.59
2019-06-20T13:30:08.471Z,100703.09
2019-06-20T13:32:38.365Z,100709.30
2019-06-20T13:35:06.509Z,100713.70
2019-06-20T13:37:35.378Z,100713.16
2019-06-20T13:40:05.938Z,100711.80
2019-06-20T13:42:34.822Z,100712.83
2019-06-20T13:45:03.716Z,100708.61
2019-06-20T13:47:32.608Z,100711.95
2019-06-20T13:50:01.528Z,100714.28
2019-06-20T13:52:30.438Z,100700.80
2019-06-20T13:54:59.338Z,100698.03
2019-06-20T13:57:28.258Z,100710.48
2019-06-20T13:59:57.168Z,100706.39
2019-06-20T14:02:26.075Z,100705.92
2019-06-20T14:04:54.980Z,100701.23
2019-06-20T14:07:23.876Z,100708.95
2019-06-20T14:09:52.768Z,100696.41
2019-06-20T14:12:21.644Z,100701.83
2019-06-20T14:14:50.537Z,100694.13
2019-06-20T14:17:19.443Z,100701.20
2019-06-20T14:19:48.669Z,100705.35
2019-06-20T14:22:17.248Z,100705.05
2019-06-20T14:24:47.593Z,100698.37
2019-06-20T14:27:15.048Z,100698.39
2019-06-20T14:29:44.955Z,100706.94
2019-06-20T14:32:21.725Z,100702.84
2019-06-20T14:34:43.659Z,100710.91
2019-06-20T14:37:10.706Z,100715.64
2019-06-20T14:39:39.593Z,100714.68
2019-06-20T14:42:08.556Z,100708.70
2019-06-20T14:44:37.459Z,100716.06
2019-06-20T14:47:06.461Z,100711.06
2019-06-20T14:49:35.298Z,100717.63
2019-06-20T14:52:04.242Z,100720.10
2019-06-20T14:54:33.160Z,100715.06
2019-06-20T14:57:02.051Z,100715.09
2019-06-20T14:59:31.133Z,100719.99
2019-06-20T15:02:00.042Z,100724.23
2019-06-20T15:04:28.938Z,100724.38
2019-06-20T15:06:57.846Z,100729.50
2019-06-20T15:09:26.766Z,100728.91
2019-06-20T15:11:55.654Z,100736.61
2019-06-20T15:14:24.568Z,100726.45
2019-06-20T15:16:53.719Z,100727.85
2019-06-20T15:19:22.379Z,100739.22
2019-06-20T15:21:52.083Z,100726.81
2019-06-20T15:24:20.175Z,100731.89
2019-06-20T15:26:50.695Z,100734.78
2019-06-20T15:29:17.960Z,100733.66
2019-06-20T15:31:47.687Z,100737.55
2019-06-20T15:34:15.750Z,100740.43
2019-06-20T15:36:44.667Z,100742.36
2019-06-20T15:39:13.533Z,100744.89
2019-06-20T15:41:42.462Z,100754.27
2019-06-20T15:44:11.374Z,100751.12
2019-06-20T15:46:40.307Z,100753.73
2019-06-20T15:49:16.068Z,100759.91
2019-06-20T15:51:38.173Z,100762.37
2019-06-20T15:54:07.307Z,100756.91
2019-06-20T15:56:36.066Z,100766.59
2019-06-20T15:59:04.976Z,100771.04
2019-06-20T16:01:33.910Z,100777.45
2019-06-20T16:04:02.843Z,100776.69
2019-06-20T16:06:31.720Z,100775.36
2019-06-20T16:09:00.794Z,100782.01
2019-06-20T16:11:29.540Z,100781.88
2019-06-20T16:13:58.488Z,100778.61
2019-06-20T16:16:27.384Z,100781.69
2019-06-20T16:18:56.292Z,100795.05
2019-06-20T16:21:25.207Z,100787.20
2019-06-20T16:23:54.117Z,100781.95
2019-06-20T16:26:23.029Z,100781.55
2019-06-20T16:28:51.916Z,100784.70
2019-06-20T16:31:26.905Z,100786.50
2019-06-20T16:33:49.723Z,100778.54
2019-06-20T16:36:18.625Z,100775.39
2019-06-20T16:38:47.597Z,100788.12
2019-06-20T16:41:16.498Z,100788.78
2019-06-20T16:43:45.376Z,100785.70
2019-06-20T16:46:14.311Z,100781.19
2019-06-20T16:48:43.249Z,100787.46
2019-06-20T16:51:12.150Z,100782.69
2019-06-20T16:53:41.067Z,100789.77
2019-06-20T16:56:10.021Z,100792.08
2019-06-20T16:58:38.915Z,100792.82
2019-06-20T17:01:07.915Z,100794.36
2019-06-20T17:03:41.516Z,100792.58
2019-06-20T17:06:05.797Z,100795.52
2019-06-20T17:08:34.712Z,100797.31
2019-06-20T17:11:03.651Z,100809.05
2019-06-20T17:13:32.516Z,100804.34
2019-06-20T17:16:01.602Z,100812.10
2019-06-20T17:18:30.387Z,100815.06
2019-06-20T17:20:59.304Z,100820.86
2019-06-20T17:23:28.256Z,100823.45
2019-06-20T17:25:57.166Z,100828.45
2019-06-20T17:28:26.063Z,100825.42
2019-06-20T17:30:54.970Z,100826.29
2019-06-20T17:33:23.906Z,100821.44
2019-06-20T17:35:52.795Z,100832.52
2019-06-20T17:38:21.706Z,100831.92
2019-06-20T17:40:50.625Z,100828.64
2019-06-20T17:43:19.504Z,100835.02
2019-06-20T17:45:48.410Z,100839.85
2019-06-20T17:48:17.289Z,100838.69
2019-06-20T17:50:46.211Z,100846.91
2019-06-20T17:53:15.113Z,100845.14
2019-06-20T17:55:44.114Z,100850.67
2019-06-20T17:58:13.020Z,100854.00
2019-06-20T18:00:41.953Z,100858.70
2019-06-20T18:03:10.857Z,100858.17
2019-06-20T18:05:39.755Z,100857.99
2019-06-20T18:08:15.141Z,100855.97
2019-06-20T18:10:37.622Z,100863.19
2019-06-20T18:13:06.579Z,100865.54
2019-06-20T18:15:35.442Z,100870.20
2019-06-20T18:18:04.381Z,100871.50
2019-06-20T18:20:33.294Z,100880.00
2019-06-20T18:23:02.212Z,100878.31
2019-06-20T18:25:31.819Z,100885.52
2019-06-20T18:27:59.989Z,100892.16
2019-06-20T18:30:39.289Z,100889.84
2019-06-20T18:33:08.695Z,100903.41
2019-06-20T18:35:37.591Z,100903.36
2019-06-20T18:38:06.585Z,100906.97
2019-06-20T18:40:35.443Z,100913.50
2019-06-20T18:43:04.433Z,100906.72
2019-06-20T18:45:33.303Z,100920.78
2019-06-20T18:48:02.215Z,100927.05
2019-06-20T18:50:31.175Z,100931.25
2019-06-20T18:53:00.055Z,100934.36
2019-06-20T18:55:28.988Z,100935.78
2019-06-20T18:57:57.980Z,100943.84
2019-06-20T19:00:34.543Z,100939.06
2019-06-20T19:02:55.769Z,100942.88
2019-06-20T19:05:24.683Z,100941.44
2019-06-20T19:07:53.592Z,100947.38
2019-06-20T19:10:22.836Z,100952.27
2019-06-20T19:12:51.905Z,100956.87
2019-06-20T19:15:20.673Z,100961.83
2019-06-20T19:17:49.581Z,100958.02
2019-06-20T19:20:18.493Z,100963.77
2019-06-20T19:22:47.418Z,100967.08
2019-06-20T19:25:16.309Z,100966.53
2019-06-20T19:27:46.879Z,100971.77
2019-06-20T19:30:14.426Z,100970.88
2019-06-20T19:32:43.374Z,100971.80
2019-06-20T19:35:12.288Z,100978.50
2019-06-20T19:37:41.202Z,100976.36
2019-06-20T19:40:10.180Z,100977.27
2019-06-20T19:42:39.096Z,100977.03
2019-06-20T19:45:09.554Z,100980.81
2019-06-20T19:47:38.525Z,100985.32
2019-06-20T19:50:07.555Z,100986.56
2019-06-20T19:52:36.471Z,100989.25
2019-06-20T19:55:05.524Z,100994.05
2019-06-20T19:57:34.357Z,100996.90
2019-06-20T20:00:03.261Z,100997.03
2019-06-20T20:02:32.148Z,101002.14
2019-06-20T20:05:14.887Z,100999.45
2019-06-20T20:07:29.946Z,101004.08
2019-06-20T20:09:58.880Z,101005.80
2019-06-20T20:12:27.769Z,101012.57
2019-06-20T20:14:56.674Z,101020.92
2019-06-20T20:17:25.593Z,101026.74
2019-06-20T20:19:54.510Z,101024.36
2019-06-20T20:22:23.468Z,101019.50
2019-06-20T20:24:52.312Z,101023.89
2019-06-20T20:27:21.229Z,101024.51
2019-06-20T20:29:50.125Z,101029.94
2019-06-20T20:32:19.023Z,101032.43
2019-06-20T20:34:47.963Z,101031.66
2019-06-20T20:37:16.888Z,101032.89
2019-06-20T20:39:45.750Z,101034.23
2019-06-20T20:42:17.659Z,101035.11
2019-06-20T20:44:43.606Z,101034.43
2019-06-20T20:47:12.515Z,101039.97
2019-06-20T20:49:41.500Z,101037.30
2019-06-20T20:52:10.500Z,101034.74
2019-06-20T20:54:39.270Z,101035.50
2019-06-20T20:57:08.233Z,101035.93
2019-06-20T20:59:37.148Z,101036.53
2019-06-20T21:02:06.079Z,101044.25
2019-06-20T21:04:34.943Z,101043.78
2019-06-20T21:07:03.879Z,101044.88
2019-06-20T21:09:32.788Z,101051.32
2019-06-20T21:12:01.684Z,101055.78
2019-06-20T21:14:30.578Z,101056.31
2019-06-20T21:16:59.494Z,101068.67
2019-06-20T21:19:28.400Z,101064.23
2019-06-20T21:21:57.313Z,101069.92
2019-06-20T21:24:26.204Z,101075.23
2019-06-20T21:26:55.189Z,101080.36
2019-06-20T21:29:24.058Z,101078.31
2019-06-20T21:31:52.938Z,101082.61
2019-06-20T21:34:21.884Z,101081.35
2019-06-20T21:36:50.777Z,101091.11
2019-06-20T21:39:19.675Z,101087.52
2019-06-20T21:41:48.570Z,101083.23
2019-06-20T21:44:17.474Z,101088.88
2019-06-20T21:46:46.351Z,101092.14
2019-06-20T21:49:15.322Z,101092.83
2019-06-20T21:51:44.847Z,101087.69
2019-06-20T21:54:13.130Z,101091.97
2019-06-20T21:56:42.035Z,101091.84
2019-06-20T21:59:10.978Z,101095.80
2019-06-20T22:01:39.921Z,101098.23
2019-06-20T22:04:08.861Z,101103.05
2019-06-20T22:06:37.801Z,101108.52
2019-06-20T22:09:07.702Z,101106.30
2019-06-20T22:11:36.634Z,101113.50
2019-06-20T22:14:05.693Z,101113.52
2019-06-20T22:16:34.649Z,101116.41
2019-06-20T22:19:03.543Z,101114.55
2019-06-20T22:21:32.458Z,101114.36
2019-06-20T22:24:01.366Z,101114.19
2019-06-20T22:26:30.291Z,101115.75
2019-06-20T22:28:59.171Z,101115.24
2019-06-20T22:31:28.091Z,101117.12
2019-06-20T22:33:56.998Z,101116.08
2019-06-20T22:36:39.106Z,101119.17
2019-06-20T22:38:54.804Z,101117.06
2019-06-20T22:41:23.726Z,101115.87
2019-06-20T22:43:52.593Z,101117.59
2019-06-20T22:46:21.515Z,101121.69
2019-06-20T22:48:50.399Z,101124.07
2019-06-20T22:51:19.326Z,101120.11
2019-06-20T22:53:48.217Z,101123.36
2019-06-20T22:56:17.129Z,101127.78
2019-06-20T22:58:46.031Z,101124.87
2019-06-20T23:01:14.962Z,101122.81
2019-06-20T23:03:43.864Z,101121.05
2019-06-20T23:06:12.774Z,101120.55
2019-06-20T23:08:41.705Z,101122.93
2019-06-20T23:11:10.610Z,101120.36
2019-06-20T23:13:39.516Z,101125.03
2019-06-20T23:16:08.485Z,101126.49
2019-06-20T23:18:37.452Z,101121.67
2019-06-20T23:21:06.334Z,101127.74
2019-06-20T23:23:35.229Z,101122.91
2019-06-20T23:26:04.236Z,101128.88
2019-06-20T23:28:33.121Z,101123.23
2019-06-20T23:31:02.067Z,101130.69
2019-06-20T23:33:30.968Z,101132.55
2019-06-20T23:35:59.863Z,101133.41
2019-06-20T23:38:28.749Z,101134.73
2019-06-20T23:40:57.657Z,101135.09
2019-06-20T23:43:26.557Z,101130.80
2019-06-20T23:45:55.491Z,101133.30
2019-06-20T23:48:24.400Z,101140.46
2019-06-20T23:50:53.333Z,101131.88
2019-06-20T23:53:24.507Z,101133.86
2019-06-20T23:55:53.941Z,101140.31
2019-06-20T23:58:22.880Z,101139.22
